createdAt,value
2023-04-19T00:00:59.420Z,2.97
2023-04-19T00:04:01.289Z,2.65
2023-04-19T00:07:03.525Z,2.83
2023-04-19T00:10:05.967Z,2.58
2023-04-19T00:13:08.945Z,2.35
2023-04-19T00:16:10.792Z,2.78
2023-04-19T00:19:12.635Z,2.70
2023-04-19T00:22:14.739Z,2.72
2023-04-19T00:25:16.503Z,2.55
2023-04-19T00:28:18.431Z,2.40
2023-04-19T00:31:20.199Z,2.70
2023-04-19T00:34:22.245Z,2.55
2023-04-19T00:37:24.025Z,3.75
2023-04-19T00:40:26.165Z,3.22
2023-04-19T00:43:27.922Z,3.33
2023-04-19T00:46:30.281Z,3.78
2023-04-19T00:49:34.863Z,3.35
2023-04-19T00:52:36.777Z,3.42
2023-04-19T00:55:39.674Z,3.60
2023-04-19T00:58:42.137Z,3.55
2023-04-19T01:01:45.333Z,3.60
2023-04-19T01:04:47.527Z,3.00
2023-04-19T01:07:49.297Z,3.25
2023-04-19T01:10:51.901Z,3.25
2023-04-19T01:13:55.020Z,3.25
2023-04-19T01:16:57.641Z,3.30
2023-04-19T01:20:01.913Z,2.92
2023-04-19T01:23:05.349Z,3.38
2023-04-19T01:26:07.292Z,3.25
2023-04-19T01:29:09.390Z,3.60
2023-04-19T01:32:15.787Z,3.30
2023-04-19T01:35:17.884Z,3.38
2023-04-19T01:38:20.012Z,3.28
2023-04-19T01:41:23.030Z,3.70
2023-04-19T01:44:24.791Z,3.58
2023-04-19T01:47:27.253Z,3.10
2023-04-19T01:50:29.186Z,3.10
2023-04-19T01:53:30.928Z,2.80
2023-04-19T01:56:33.379Z,3.20
2023-04-19T01:59:36.632Z,2.67
2023-04-19T02:02:38.763Z,2.83
2023-04-19T02:05:40.771Z,3.28
2023-04-19T02:08:43.166Z,3.00
2023-04-19T02:11:45.015Z,2.80
2023-04-19T02:14:47.825Z,3.08
2023-04-19T02:17:49.678Z,3.58
2023-04-19T02:20:55.989Z,3.17
2023-04-19T02:23:58.266Z,2.60
2023-04-19T02:27:02.076Z,2.70
2023-04-19T02:30:04.558Z,3.00
2023-04-19T02:33:08.632Z,3.25
2023-04-19T02:36:10.435Z,3.45
2023-04-19T02:39:12.394Z,3.13
2023-04-19T02:42:14.207Z,3.30
2023-04-19T02:45:16.042Z,3.50
2023-04-19T02:48:17.878Z,3.30
2023-04-19T02:51:19.730Z,3.95
2023-04-19T02:54:21.573Z,3.28
2023-04-19T02:57:23.604Z,4.00
2023-04-19T03:00:25.911Z,3.22
2023-04-19T03:03:37.914Z,3.40
2023-04-19T03:06:40.066Z,3.80
2023-04-19T03:09:41.940Z,3.80
2023-04-19T03:12:44.874Z,3.78
2023-04-19T03:15:47.480Z,3.30
2023-04-19T03:18:50.170Z,3.30
2023-04-19T03:21:55.678Z,3.60
2023-04-19T03:24:58.302Z,3.38
2023-04-19T03:28:00.582Z,3.65
2023-04-19T03:31:22.372Z,3.30
2023-04-19T03:34:26.116Z,3.47
2023-04-19T03:37:29.273Z,3.15
2023-04-19T03:40:33.862Z,4.05
2023-04-19T03:43:36.205Z,3.35
2023-04-19T03:46:38.092Z,3.22
2023-04-19T03:49:40.218Z,2.85
2023-04-19T03:52:42.330Z,3.30
2023-04-19T03:55:47.004Z,2.50
2023-04-19T03:58:51.507Z,3.13
2023-04-19T04:01:53.721Z,3.30
2023-04-19T04:04:56.248Z,3.42
2023-04-19T04:07:59.032Z,3.47
2023-04-19T04:11:01.460Z,2.75
2023-04-19T04:14:04.963Z,3.13
2023-04-19T04:17:10.617Z,3.20
2023-04-19T04:20:13.661Z,3.10
2023-04-19T04:23:16.660Z,2.95
2023-04-19T04:26:25.334Z,2.70
2023-04-19T04:29:53.570Z,3.17
2023-04-19T04:32:58.950Z,2.95
2023-04-19T04:36:01.475Z,3.00
2023-04-19T04:39:10.466Z,2.70
2023-04-19T04:42:13.607Z,3.20
2023-04-19T04:45:18.421Z,3.47
2023-04-19T04:48:20.541Z,3.30
2023-04-19T04:51:22.368Z,3.05
2023-04-19T04:54:27.416Z,4.07
2023-04-19T04:57:30.136Z,3.30
2023-04-19T05:00:33.418Z,4.10
2023-04-19T05:03:39.193Z,4.07
2023-04-19T05:06:45.558Z,3.80
2023-04-19T05:09:53.424Z,3.55
2023-04-19T05:13:01.328Z,4.13
2023-04-19T05:16:04.778Z,3.85
2023-04-19T05:19:06.996Z,4.35
2023-04-19T05:22:14.747Z,4.18
2023-04-19T05:25:18.011Z,4.28
2023-04-19T05:28:20.118Z,4.40
2023-04-19T05:31:36.229Z,4.07
2023-04-19T05:34:51.901Z,3.83
2023-04-19T05:37:54.651Z,4.00
2023-04-19T05:40:56.500Z,6.00
2023-04-19T05:43:58.368Z,5.60
2023-04-19T05:47:01.293Z,4.70
2023-04-19T05:50:23.336Z,4.70
2023-04-19T05:53:57.778Z,3.90
2023-04-19T05:57:00.650Z,4.65
2023-04-19T06:00:03.133Z,4.78
2023-04-19T06:03:15.816Z,5.28
2023-04-19T06:06:18.360Z,5.00
2023-04-19T06:09:20.532Z,5.57
2023-04-19T06:12:22.556Z,5.60
2023-04-19T06:15:26.056Z,5.03
2023-04-19T06:18:27.863Z,5.80
2023-04-19T06:21:33.036Z,5.55
2023-04-19T06:24:35.417Z,6.80
2023-04-19T06:27:39.812Z,6.80
2023-04-19T06:30:41.742Z,6.50
2023-04-19T06:33:43.925Z,7.22
2023-04-19T06:36:45.858Z,6.72
2023-04-19T06:39:47.680Z,7.13
2023-04-19T06:42:49.809Z,7.40
2023-04-19T06:45:58.951Z,7.20
2023-04-19T06:49:00.936Z,7.50
2023-04-19T06:52:02.755Z,7.40
2023-04-19T06:55:06.346Z,7.30
2023-04-19T06:58:10.748Z,7.63
2023-04-19T07:01:13.126Z,7.35
2023-04-19T07:04:15.961Z,7.85
2023-04-19T07:07:18.166Z,7.70
2023-04-19T07:10:19.911Z,6.90
2023-04-19T07:13:21.643Z,7.60
2023-04-19T07:16:23.590Z,7.80
2023-04-19T07:19:25.451Z,6.68
2023-04-19T07:22:27.195Z,6.53
2023-04-19T07:25:31.008Z,6.70
2023-04-19T07:28:32.815Z,6.03
2023-04-19T07:31:34.591Z,6.60
2023-04-19T07:34:38.324Z,7.22
2023-04-19T07:37:40.372Z,6.45
2023-04-19T07:40:42.217Z,6.35
2023-04-19T07:43:44.268Z,6.07
2023-04-19T07:46:46.147Z,6.35
2023-04-19T07:49:52.220Z,6.55
2023-04-19T07:52:54.297Z,5.97
2023-04-19T07:55:56.371Z,6.55
2023-04-19T07:59:07.541Z,6.20
2023-04-19T08:02:11.168Z,5.78
2023-04-19T08:05:14.342Z,6.35
2023-04-19T08:08:16.473Z,5.57
2023-04-19T08:11:18.249Z,5.70
2023-04-19T08:14:32.336Z,6.20
2023-04-19T08:17:43.460Z,6.38
2023-04-19T08:20:47.036Z,6.22
2023-04-19T08:23:49.046Z,5.80
2023-04-19T08:26:54.308Z,6.60
2023-04-19T08:29:56.383Z,5.35
2023-04-19T08:32:58.301Z,6.00
2023-04-19T08:36:00.173Z,5.80
2023-04-19T08:39:06.663Z,5.53
2023-04-19T08:42:24.747Z,5.25
2023-04-19T08:45:33.965Z,6.07
2023-04-19T08:48:37.037Z,5.25
2023-04-19T08:51:40.973Z,5.57
2023-04-19T08:54:43.412Z,5.28
2023-04-19T08:57:45.229Z,6.05
2023-04-19T09:00:47.369Z,5.88
2023-04-19T09:04:02.410Z,5.00
2023-04-19T09:07:09.009Z,5.70
2023-04-19T09:10:14.188Z,4.70
2023-04-19T09:13:19.263Z,5.18
2023-04-19T09:16:25.217Z,5.40
2023-04-19T09:19:27.396Z,5.20
2023-04-19T09:22:29.279Z,4.88
2023-04-19T09:25:49.307Z,5.03
2023-04-19T09:29:02.112Z,4.95
2023-04-19T09:32:04.383Z,5.03
2023-04-19T09:35:07.323Z,4.70
2023-04-19T09:38:10.448Z,5.00
2023-04-19T09:41:12.221Z,5.10
2023-04-19T09:47:30.067Z,4.53
2023-04-19T09:50:32.702Z,4.88
2023-04-19T09:53:40.464Z,5.32
2023-04-19T09:56:42.457Z,4.60
2023-04-19T09:59:44.235Z,4.97
2023-04-19T10:02:54.753Z,4.95
2023-04-19T10:05:57.922Z,4.63
2023-04-19T10:09:07.435Z,5.32
2023-04-19T10:12:25.096Z,4.68
2023-04-19T10:15:49.314Z,4.72
2023-04-19T10:18:54.620Z,4.47
2023-04-19T10:21:57.019Z,4.88
2023-04-19T10:25:13.366Z,4.78
2023-04-19T10:28:18.291Z,4.65
2023-04-19T10:31:24.040Z,4.93
2023-04-19T10:34:46.422Z,5.03
2023-04-19T10:38:13.439Z,4.72
2023-04-19T10:41:17.884Z,4.93
2023-04-19T10:44:20.724Z,4.80
2023-04-19T10:47:44.472Z,4.32
2023-04-19T10:50:58.832Z,3.85
2023-04-19T10:54:00.598Z,4.10
2023-04-19T10:57:06.896Z,4.32
2023-04-19T11:00:22.277Z,4.38
2023-04-19T11:03:46.042Z,4.20
2023-04-19T11:06:51.486Z,4.50
2023-04-19T11:09:53.458Z,4.13
2023-04-19T11:12:55.428Z,4.22
2023-04-19T11:15:59.352Z,4.10
2023-04-19T11:19:01.356Z,4.18
2023-04-19T11:22:03.241Z,4.40
2023-04-19T11:25:13.972Z,4.55
2023-04-19T11:28:17.589Z,4.50
2023-04-19T11:31:20.321Z,4.20
2023-04-19T11:34:25.333Z,4.40
2023-04-19T11:37:34.173Z,4.47
2023-04-19T11:40:37.705Z,4.40
2023-04-19T11:43:40.205Z,4.72
2023-04-19T11:46:42.559Z,4.63
2023-04-19T11:49:44.384Z,4.85
2023-04-19T11:52:49.365Z,4.35
2023-04-19T11:55:57.588Z,4.45
2023-04-19T11:58:59.381Z,4.32
2023-04-19T12:02:09.379Z,4.40
2023-04-19T12:05:13.931Z,5.22
2023-04-19T12:08:15.924Z,4.90
2023-04-19T12:11:21.509Z,4.40
2023-04-19T12:14:23.438Z,4.40
2023-04-19T12:17:25.248Z,4.95
2023-04-19T12:20:37.369Z,4.85
2023-04-19T12:23:39.278Z,5.20
2023-04-19T12:27:02.658Z,4.45
2023-04-19T12:30:08.552Z,5.00
2023-04-19T12:33:10.372Z,5.53
2023-04-19T12:36:12.322Z,5.00
2023-04-19T12:39:14.191Z,4.93
2023-04-19T12:42:16.098Z,4.70
2023-04-19T12:45:19.385Z,4.85
2023-04-19T12:48:21.375Z,5.13
2023-04-19T12:51:23.166Z,5.00
2023-04-19T12:54:25.145Z,4.75
2023-04-19T12:57:27.633Z,5.75
2023-04-19T13:00:30.383Z,4.45
2023-04-19T13:03:33.377Z,4.95
2023-04-19T13:06:35.650Z,4.88
2023-04-19T13:09:37.468Z,4.00
2023-04-19T13:12:39.641Z,4.03
2023-04-19T13:15:42.099Z,4.07
2023-04-19T13:18:43.924Z,4.25
2023-04-19T13:21:46.023Z,3.75
2023-04-19T13:24:47.902Z,3.58
2023-04-19T13:27:50.174Z,3.40
2023-04-19T13:30:52.194Z,4.25
2023-04-19T13:33:54.410Z,4.38
2023-04-19T13:36:57.671Z,5.13
2023-04-19T13:40:10.685Z,4.30
2023-04-19T13:43:21.059Z,3.80
2023-04-19T13:46:22.849Z,4.45
2023-04-19T13:49:24.630Z,3.60
2023-04-19T13:52:26.803Z,3.72
2023-04-19T13:55:28.736Z,3.60
2023-04-19T13:58:30.573Z,3.50
2023-04-19T14:01:32.340Z,3.70
2023-04-19T14:04:34.102Z,4.07
2023-04-19T14:07:35.926Z,4.00
2023-04-19T14:10:38.127Z,4.47
2023-04-19T14:13:40.055Z,3.60
2023-04-19T14:16:41.854Z,3.78
2023-04-19T14:19:43.659Z,3.70
2023-04-19T14:22:47.211Z,4.13
2023-04-19T14:25:48.918Z,4.50
2023-04-19T14:28:50.802Z,4.40
2023-04-19T14:31:52.603Z,4.90
2023-04-19T14:34:56.263Z,4.13
2023-04-19T14:37:58.129Z,4.78
2023-04-19T14:41:00.001Z,4.93
2023-04-19T14:44:01.798Z,4.93
2023-04-19T14:47:03.608Z,5.10
2023-04-19T14:50:06.571Z,4.47
2023-04-19T14:53:08.930Z,4.57
2023-04-19T14:56:10.882Z,4.50
2023-04-19T14:59:12.934Z,5.32
2023-04-19T15:02:15.266Z,5.18
2023-04-19T15:05:17.387Z,6.07
2023-04-19T15:08:30.346Z,4.93
2023-04-19T15:11:32.667Z,4.30
2023-04-19T15:14:34.621Z,4.47
2023-04-19T15:17:37.388Z,4.60
2023-04-19T15:20:39.172Z,5.00
2023-04-19T15:23:41.243Z,5.15
2023-04-19T15:26:44.405Z,4.88
2023-04-19T15:29:47.647Z,7.05
2023-04-19T15:32:49.539Z,6.55
2023-04-19T15:35:52.478Z,5.70
2023-04-19T15:38:54.327Z,5.90
2023-04-19T15:41:57.174Z,5.70
2023-04-19T15:44:58.970Z,5.93
2023-04-19T15:48:00.791Z,6.22
2023-04-19T15:51:02.880Z,5.32
2023-04-19T15:54:05.990Z,5.22
2023-04-19T15:57:07.738Z,4.88
2023-04-19T16:00:10.071Z,5.28
2023-04-19T16:03:14.716Z,4.85
2023-04-19T16:06:16.944Z,5.28
2023-04-19T16:09:19.395Z,5.40
2023-04-19T16:12:21.336Z,4.85
2023-04-19T16:15:24.649Z,5.10
2023-04-19T16:18:26.703Z,4.97
2023-04-19T16:21:28.919Z,5.75
2023-04-19T16:24:31.173Z,4.80
2023-04-19T16:27:33.031Z,5.38
2023-04-19T16:30:34.898Z,4.88
2023-04-19T16:33:36.708Z,4.85
2023-04-19T16:36:39.156Z,5.15
2023-04-19T16:39:41.050Z,4.90
2023-04-19T16:42:42.847Z,4.82
2023-04-19T16:45:44.583Z,5.40
2023-04-19T16:48:46.556Z,5.00
2023-04-19T16:51:48.355Z,5.07
2023-04-19T16:54:50.087Z,4.82
2023-04-19T16:57:53.722Z,5.25
2023-04-19T17:00:57.046Z,5.38
2023-04-19T17:03:58.948Z,5.35
2023-04-19T17:07:01.188Z,5.07
2023-04-19T17:10:03.058Z,5.18
2023-04-19T17:13:04.843Z,5.10
2023-04-19T17:16:07.425Z,5.72
2023-04-19T17:19:09.203Z,4.72
2023-04-19T17:22:11.462Z,5.05
2023-04-19T17:25:13.253Z,5.47
2023-04-19T17:28:15.292Z,5.25
2023-04-19T17:31:17.201Z,4.88
2023-04-19T17:34:19.810Z,4.90
2023-04-19T17:37:21.634Z,5.13
2023-04-19T17:40:23.436Z,5.40
2023-04-19T17:43:25.961Z,9.18
2023-04-19T17:46:27.723Z,6.00
2023-04-19T17:49:32.280Z,5.70
2023-04-19T17:52:34.736Z,5.97
2023-04-19T17:55:36.454Z,4.85
2023-04-19T17:58:38.244Z,5.30
2023-04-19T18:01:40.913Z,5.55
2023-04-19T18:04:44.605Z,5.18
2023-04-19T18:07:46.566Z,5.60
2023-04-19T18:10:48.330Z,5.70
2023-04-19T18:13:50.161Z,5.18
2023-04-19T18:16:52.123Z,5.70
2023-04-19T18:19:54.241Z,5.13
2023-04-19T18:22:56.009Z,5.35
2023-04-19T18:26:02.693Z,5.57
2023-04-19T18:29:04.461Z,6.55
2023-04-19T18:32:06.410Z,4.90
2023-04-19T18:35:10.154Z,5.30
2023-04-19T18:38:20.294Z,4.97
2023-04-19T18:41:22.819Z,4.65
2023-04-19T18:44:38.920Z,4.93
2023-04-19T18:47:47.996Z,4.78
2023-04-19T18:50:49.905Z,4.78
2023-04-19T18:53:53.000Z,4.32
2023-04-19T18:57:21.784Z,4.43
2023-04-19T19:00:22.674Z,4.50
2023-04-19T19:06:30.138Z,4.53
2023-04-19T19:09:32.393Z,5.05
2023-04-19T19:12:35.032Z,4.72
2023-04-19T19:15:37.381Z,3.90
2023-04-19T19:18:41.808Z,3.97
2023-04-19T19:21:43.725Z,4.05
2023-04-19T19:24:45.627Z,4.10
2023-04-19T19:28:05.740Z,4.18
2023-04-19T19:31:10.023Z,3.50
2023-04-19T19:34:24.085Z,4.32
2023-04-19T19:37:34.434Z,3.47
2023-04-19T19:40:59.389Z,3.63
2023-04-19T19:44:00.386Z,3.90
2023-04-19T19:47:02.186Z,3.45
2023-04-19T19:50:45.695Z,3.33
2023-04-19T19:53:29.116Z,3.70
2023-04-19T19:56:30.994Z,3.75
2023-04-19T19:59:34.640Z,3.97
2023-04-19T20:05:41.478Z,4.32
2023-04-19T20:08:44.512Z,4.07
2023-04-19T20:11:46.559Z,3.78
2023-04-19T20:14:48.324Z,4.45
2023-04-19T20:17:50.378Z,5.45
2023-04-19T20:20:52.309Z,8.00
2023-04-19T20:23:54.137Z,8.00
2023-04-19T20:26:57.211Z,5.85
2023-04-19T20:30:00.600Z,4.40
2023-04-19T20:33:02.722Z,4.57
2023-04-19T20:36:04.879Z,3.75
2023-04-19T20:39:09.797Z,4.13
2023-04-19T20:42:11.664Z,4.55
2023-04-19T20:45:14.510Z,5.20
2023-04-19T20:48:17.725Z,4.95
2023-04-19T20:51:19.658Z,4.38
2023-04-19T20:54:22.567Z,4.18
2023-04-19T20:57:24.386Z,4.53
2023-04-19T21:00:26.186Z,3.90
2023-04-19T21:03:28.039Z,3.83
2023-04-19T21:06:30.128Z,3.83
2023-04-19T21:09:32.820Z,3.78
2023-04-19T21:12:35.747Z,3.70
2023-04-19T21:15:39.656Z,3.50
2023-04-19T21:18:44.621Z,3.75
2023-04-19T21:21:48.509Z,3.22
2023-04-19T21:24:50.226Z,3.70
2023-04-19T21:27:52.032Z,3.30
2023-04-19T21:30:57.700Z,3.28
2023-04-19T21:34:00.135Z,3.80
2023-04-19T21:37:01.879Z,3.80
2023-04-19T21:40:03.957Z,3.42
2023-04-19T21:43:06.047Z,4.22
2023-04-19T21:46:08.087Z,3.55
2023-04-19T21:49:09.833Z,3.92
2023-04-19T21:52:11.781Z,3.67
2023-04-19T21:55:14.908Z,3.97
2023-04-19T21:58:17.649Z,3.20
2023-04-19T22:01:19.531Z,3.65
2023-04-19T22:04:21.386Z,3.20
2023-04-19T22:07:23.901Z,3.10
2023-04-19T22:10:26.191Z,3.47
2023-04-19T22:13:28.502Z,3.40
2023-04-19T22:16:32.769Z,3.13
2023-04-19T22:19:35.005Z,2.92
2023-04-19T22:22:37.359Z,3.15
2023-04-19T22:25:39.288Z,3.10
2023-04-19T22:28:41.084Z,3.10
2023-04-19T22:31:43.003Z,3.20
2023-04-19T22:34:52.279Z,3.00
2023-04-19T22:37:54.263Z,2.95
2023-04-19T22:40:56.189Z,3.35
2023-04-19T22:43:58.689Z,3.05
2023-04-19T22:47:00.532Z,3.70
2023-04-19T22:50:02.358Z,3.22
2023-04-19T22:53:04.057Z,3.03
2023-04-19T22:56:06.238Z,3.30
2023-04-19T22:59:11.035Z,3.20
2023-04-19T23:02:12.819Z,3.10
2023-04-19T23:05:14.613Z,3.85
2023-04-19T23:08:16.465Z,3.20
2023-04-19T23:11:18.208Z,2.97
2023-04-19T23:14:19.981Z,3.03
2023-04-19T23:17:21.716Z,3.13
2023-04-19T23:20:24.159Z,3.55
2023-04-19T23:23:25.923Z,3.00
2023-04-19T23:26:27.710Z,3.63
2023-04-19T23:29:29.655Z,3.17
2023-04-19T23:32:31.525Z,3.72
2023-04-19T23:35:33.266Z,3.00
2023-04-19T23:38:35.004Z,2.90
2023-04-19T23:41:36.833Z,3.20
2023-04-19T23:44:39.413Z,3.67
2023-04-19T23:47:41.470Z,3.30
2023-04-19T23:50:44.807Z,3.50
2023-04-19T23:53:46.551Z,3.55
2023-04-19T23:56:49.579Z,3.80
2023-04-19T23:59:51.481Z,3.90
